createdAt,value
2023-04-03T00:01:11.024Z,3.08
2023-04-03T00:06:14.939Z,3.08
2023-04-03T00:11:13.448Z,3.90
2023-04-03T00:16:12.381Z,2.90
2023-04-03T00:21:07.031Z,3.10
2023-04-03T00:26:10.514Z,2.90
2023-04-03T00:31:08.786Z,2.88
2023-04-03T00:36:07.817Z,2.60
2023-04-03T00:41:12.019Z,3.13
2023-04-03T00:46:06.039Z,2.95
2023-04-03T00:51:00.894Z,3.00
2023-04-03T00:56:00.269Z,3.05
2023-04-03T01:01:06.308Z,2.80
2023-04-03T01:06:02.195Z,3.35
2023-04-03T01:11:01.620Z,3.10
2023-04-03T01:15:57.594Z,2.63
2023-04-03T01:21:43.217Z,3.30
2023-04-03T01:26:53.089Z,2.88
2023-04-03T01:32:03.069Z,2.70
2023-04-03T01:36:59.549Z,3.22
2023-04-03T01:41:57.886Z,3.47
2023-04-03T01:47:08.534Z,3.28
2023-04-03T01:52:08.803Z,3.00
2023-04-03T01:57:05.360Z,3.40
2023-04-03T02:01:59.470Z,3.50
2023-04-03T02:06:55.055Z,3.20
2023-04-03T02:11:48.960Z,3.00
2023-04-03T02:16:44.524Z,3.17
2023-04-03T02:21:38.586Z,3.40
2023-04-03T02:26:35.478Z,3.45
2023-04-03T02:31:43.647Z,3.67
2023-04-03T02:36:39.787Z,3.72
2023-04-03T02:41:37.713Z,4.38
2023-04-03T02:46:39.443Z,3.78
2023-04-03T02:51:34.940Z,3.60
2023-04-03T02:56:35.903Z,3.78
2023-04-03T03:01:37.006Z,4.00
2023-04-03T03:06:36.872Z,4.78
2023-04-03T03:11:45.177Z,5.70
2023-04-03T03:16:49.846Z,4.10
2023-04-03T03:21:53.864Z,4.38
2023-04-03T03:27:17.695Z,3.78
2023-04-03T03:32:34.967Z,4.38
2023-04-03T03:37:35.826Z,4.15
2023-04-03T03:42:37.624Z,4.35
2023-04-03T03:47:42.617Z,4.85
2023-04-03T03:52:36.593Z,5.00
2023-04-03T03:57:37.566Z,8.07
2023-04-03T04:02:37.625Z,8.20
2023-04-03T04:07:41.289Z,8.57
2023-04-03T04:12:38.731Z,9.23
2023-04-03T04:17:32.738Z,15.82
2023-04-03T04:22:29.372Z,26.77
2023-04-03T04:27:28.694Z,20.17
2023-04-03T04:32:45.231Z,19.77
2023-04-03T04:37:49.420Z,21.30
2023-04-03T04:42:47.947Z,11.30
2023-04-03T04:47:53.804Z,14.85
2023-04-03T04:53:02.709Z,17.75
2023-04-03T04:58:09.613Z,15.13
2023-04-03T05:03:03.571Z,14.85
2023-04-03T05:07:58.346Z,15.00
2023-04-03T05:12:58.879Z,18.73
2023-04-03T05:17:55.073Z,22.35
2023-04-03T05:22:54.332Z,17.65
2023-04-03T05:27:48.621Z,22.42
2023-04-03T05:32:51.431Z,23.42
2023-04-03T05:37:53.637Z,21.13
2023-04-03T05:42:51.071Z,17.27
2023-04-03T05:47:52.059Z,15.45
2023-04-03T05:53:00.565Z,13.70
2023-04-03T05:58:00.319Z,10.98
2023-04-03T06:03:11.576Z,9.05
2023-04-03T06:08:48.598Z,8.45
2023-04-03T06:18:44.810Z,10.85
2023-04-03T06:23:50.214Z,7.55
2023-04-03T06:28:44.367Z,9.32
2023-04-03T06:33:42.111Z,6.03
2023-04-03T06:38:40.517Z,5.28
2023-04-03T06:43:42.911Z,4.93
2023-04-03T06:48:58.518Z,4.80
2023-04-03T06:53:54.332Z,5.80
2023-04-03T06:58:55.818Z,10.43
2023-04-03T07:03:52.755Z,4.32
2023-04-03T07:09:03.161Z,3.83
2023-04-03T07:14:52.294Z,5.18
2023-04-03T07:19:47.224Z,5.88
2023-04-03T07:24:41.570Z,5.03
2023-04-03T07:29:38.683Z,5.45
2023-04-03T07:34:37.597Z,4.78
2023-04-03T07:39:54.834Z,4.78
2023-04-03T07:44:51.599Z,5.20
2023-04-03T07:49:59.204Z,5.43
2023-04-03T07:54:56.577Z,4.90
2023-04-03T08:00:07.351Z,5.07
2023-04-03T08:05:09.250Z,5.63
2023-04-03T08:10:16.871Z,5.28
2023-04-03T08:15:14.048Z,5.70
2023-04-03T08:20:19.645Z,6.10
2023-04-03T08:25:21.970Z,6.32
2023-04-03T08:30:18.886Z,6.32
2023-04-03T08:35:13.462Z,6.13
2023-04-03T08:40:16.239Z,6.57
2023-04-03T08:45:17.293Z,6.07
2023-04-03T08:50:34.255Z,5.90
2023-04-03T08:55:48.824Z,5.40
2023-04-03T09:00:50.927Z,4.68
2023-04-03T09:05:52.360Z,3.60
2023-04-03T09:10:49.011Z,3.90
2023-04-03T09:15:58.719Z,3.42
2023-04-03T09:21:14.693Z,3.70
2023-04-03T09:26:41.234Z,4.50
2023-04-03T09:31:46.141Z,3.65
2023-04-03T09:36:48.867Z,3.97
2023-04-03T09:41:57.630Z,3.92
2023-04-03T09:46:53.661Z,4.78
2023-04-03T09:51:55.738Z,4.03
2023-04-03T09:56:57.141Z,4.22
2023-04-03T10:02:20.889Z,3.83
2023-04-03T10:08:11.376Z,4.07
2023-04-03T10:13:09.393Z,3.88
2023-04-03T10:18:33.008Z,4.18
2023-04-03T10:23:49.993Z,3.85
2023-04-03T10:28:50.520Z,3.75
2023-04-03T10:33:55.637Z,3.53
2023-04-03T10:39:03.421Z,3.53
2023-04-03T10:44:07.557Z,3.75
2023-04-03T10:49:14.334Z,3.25
2023-04-03T10:54:15.461Z,3.40
2023-04-03T10:59:19.009Z,3.17
2023-04-03T11:04:14.034Z,3.47
2023-04-03T11:09:19.478Z,2.78
2023-04-03T11:14:17.436Z,2.60
2023-04-03T11:19:22.684Z,3.05
2023-04-03T11:24:23.299Z,2.55
2023-04-03T11:29:34.452Z,2.90
2023-04-03T11:34:39.423Z,2.60
2023-04-03T11:39:36.987Z,2.50
2023-04-03T11:44:38.795Z,2.30
2023-04-03T11:50:11.456Z,2.78
2023-04-03T11:55:52.412Z,2.97
2023-04-03T12:01:10.104Z,2.40
2023-04-03T12:06:41.070Z,2.78
2023-04-03T12:11:42.557Z,2.80
2023-04-03T12:16:47.086Z,2.72
2023-04-03T12:22:10.479Z,2.60
2023-04-03T12:27:12.458Z,2.42
2023-04-03T12:32:19.402Z,2.70
2023-04-03T12:37:27.694Z,3.45
2023-04-03T12:42:36.891Z,2.80
2023-04-03T12:47:34.228Z,2.50
2023-04-03T12:52:44.877Z,3.20
2023-04-03T12:57:43.501Z,3.53
2023-04-03T13:02:38.653Z,3.30
2023-04-03T13:07:38.637Z,3.50
2023-04-03T13:12:36.028Z,3.50
2023-04-03T13:17:38.891Z,3.67
2023-04-03T13:22:43.481Z,3.40
2023-04-03T13:27:38.105Z,4.13
2023-04-03T13:32:35.858Z,3.80
2023-04-03T13:37:31.505Z,3.90
2023-04-03T13:42:27.546Z,4.95
2023-04-03T13:47:23.247Z,4.80
2023-04-03T13:52:37.320Z,5.10
2023-04-03T13:57:30.989Z,4.65
2023-04-03T14:02:33.165Z,4.55
2023-04-03T14:07:27.398Z,5.68
2023-04-03T14:12:31.724Z,5.85
2023-04-03T14:17:28.886Z,5.82
2023-04-03T14:22:28.155Z,7.43
2023-04-03T14:27:25.038Z,6.97
2023-04-03T14:32:24.313Z,6.70
2023-04-03T14:37:23.544Z,6.78
2023-04-03T14:42:21.743Z,6.95
2023-04-03T14:47:29.800Z,6.68
2023-04-03T14:52:28.204Z,6.75
2023-04-03T14:57:22.045Z,6.70
2023-04-03T15:02:29.554Z,6.20
2023-04-03T15:07:23.708Z,6.70
2023-04-03T15:12:16.890Z,8.38
2023-04-03T15:17:17.214Z,6.63
2023-04-03T15:22:16.691Z,6.97
2023-04-03T15:27:13.644Z,7.70
2023-04-03T15:32:14.797Z,8.73
2023-04-03T15:37:08.091Z,7.80
2023-04-03T15:42:07.083Z,9.05
2023-04-03T15:47:00.710Z,8.67
2023-04-03T15:51:53.899Z,9.05
2023-04-03T15:56:47.080Z,10.45
2023-04-03T16:01:42.608Z,9.13
2023-04-03T16:06:36.051Z,9.77
2023-04-03T16:11:29.912Z,10.93
2023-04-03T16:16:23.570Z,10.15
2023-04-03T16:21:19.225Z,10.48
2023-04-03T16:26:12.620Z,11.45
2023-04-03T16:31:08.084Z,13.60
2023-04-03T16:36:01.636Z,20.35
2023-04-03T16:40:58.182Z,12.68
2023-04-03T16:45:51.586Z,11.13
2023-04-03T16:50:53.849Z,11.50
2023-04-03T16:55:51.326Z,9.50
2023-04-03T17:00:48.250Z,10.38
2023-04-03T17:05:41.877Z,10.35
2023-04-03T17:10:36.474Z,22.85
2023-04-03T17:15:29.849Z,14.30
2023-04-03T17:20:29.142Z,11.13
2023-04-03T17:25:25.054Z,10.70
2023-04-03T17:30:20.573Z,12.10
2023-04-03T17:35:13.753Z,10.27
2023-04-03T17:40:16.479Z,7.90
2023-04-03T17:45:10.903Z,8.00
2023-04-03T17:50:04.386Z,8.05
2023-04-03T17:54:58.880Z,6.30
2023-04-03T17:59:55.813Z,5.20
2023-04-03T18:04:55.928Z,4.70
2023-04-03T18:09:52.971Z,8.20
2023-04-03T18:14:47.220Z,10.30
2023-04-03T18:19:42.065Z,10.70
2023-04-03T18:24:36.682Z,9.50
2023-04-03T18:29:42.398Z,8.88
2023-04-03T18:34:35.724Z,8.73
2023-04-03T18:39:38.045Z,8.20
2023-04-03T18:44:33.646Z,7.22
2023-04-03T18:49:32.799Z,7.82
2023-04-03T18:54:28.219Z,9.77
2023-04-03T18:59:25.220Z,8.95
2023-04-03T19:04:18.889Z,7.00
2023-04-03T19:09:16.217Z,6.20
2023-04-03T19:19:16.985Z,6.60
2023-04-03T19:24:11.074Z,6.90
2023-04-03T19:29:11.823Z,6.90
2023-04-03T19:34:16.335Z,8.13
2023-04-03T19:39:14.058Z,9.30
2023-04-03T19:44:17.686Z,10.30
2023-04-03T19:49:17.736Z,10.30
2023-04-03T19:54:13.470Z,10.50
2023-04-03T19:59:07.371Z,11.07
2023-04-03T20:04:10.777Z,13.68
2023-04-03T20:09:07.248Z,12.82
2023-04-03T20:14:05.993Z,11.15
2023-04-03T20:19:00.661Z,9.50
2023-04-03T20:23:53.939Z,7.78
2023-04-03T20:28:48.650Z,8.15
2023-04-03T20:33:54.675Z,8.40
2023-04-03T20:38:49.080Z,9.10
2023-04-03T20:43:56.605Z,9.10
2023-04-03T20:49:01.870Z,9.52
2023-04-03T20:54:07.100Z,9.38
2023-04-03T20:59:02.588Z,10.32
2023-04-03T21:04:39.955Z,12.07
2023-04-03T21:10:10.638Z,13.05
2023-04-03T21:15:41.337Z,11.87
2023-04-03T21:20:42.353Z,11.23
2023-04-03T21:25:54.821Z,11.45
2023-04-03T21:30:52.929Z,13.65
2023-04-03T21:35:48.137Z,10.93
2023-04-03T21:40:41.645Z,12.18
2023-04-03T21:45:35.273Z,12.10
2023-04-03T21:50:28.586Z,13.02
2023-04-03T21:55:23.708Z,11.25
2023-04-03T22:00:17.703Z,11.85
2023-04-03T22:05:11.417Z,7.53
2023-04-03T22:10:05.140Z,5.10
2023-04-03T22:15:00.689Z,5.65
2023-04-03T22:19:54.068Z,4.90
2023-04-03T22:24:47.309Z,5.32
2023-04-03T22:29:40.686Z,5.43
2023-04-03T22:34:39.725Z,4.57
2023-04-03T22:39:33.001Z,4.80
2023-04-03T22:44:29.649Z,6.75
2023-04-03T22:49:25.452Z,7.30
2023-04-03T22:54:20.098Z,8.48
2023-04-03T22:59:13.415Z,7.68
2023-04-03T23:04:06.765Z,6.90
2023-04-03T23:09:00.244Z,6.15
2023-04-03T23:13:54.777Z,5.38
2023-04-03T23:18:50.112Z,5.30
2023-04-03T23:23:43.528Z,5.25
2023-04-03T23:28:38.090Z,6.20
2023-04-03T23:33:33.484Z,5.57
2023-04-03T23:38:26.922Z,6.03
2023-04-03T23:43:20.209Z,5.85
2023-04-03T23:48:13.456Z,5.90
2023-04-03T23:53:08.658Z,7.30
2023-04-03T23:58:01.991Z,7.15
